createdAt,value
2018-03-20T00:02:19.133Z,93649.16
2018-03-20T00:04:47.297Z,93644.63
2018-03-20T00:07:15.684Z,93649.73
2018-03-20T00:09:43.858Z,93651.47
2018-03-20T00:12:12.031Z,93641.11
2018-03-20T00:14:40.401Z,93641.77
2018-03-20T00:17:09.091Z,93640.94
2018-03-20T00:19:37.985Z,93637.47
2018-03-20T00:22:06.560Z,93640.27
2018-03-20T00:24:34.844Z,93643.81
2018-03-20T00:27:03.224Z,93638.30
2018-03-20T00:29:31.402Z,93641.40
2018-03-20T00:31:59.775Z,93643.41
2018-03-20T00:34:28.070Z,93627.94
2018-03-20T00:36:56.521Z,93633.59
2018-03-20T00:39:24.787Z,93646.00
2018-03-20T00:41:53.010Z,93641.75
2018-03-20T00:44:21.149Z,93641.04
2018-03-20T00:46:49.639Z,93645.31
2018-03-20T00:49:18.617Z,93643.48
2018-03-20T00:51:47.302Z,93638.87
2018-03-20T00:54:15.681Z,93628.97
2018-03-20T00:56:44.270Z,93625.76
2018-03-20T00:59:12.474Z,93622.95
2018-03-20T01:01:41.225Z,93623.73
2018-03-20T01:04:09.799Z,93635.24
2018-03-20T01:06:38.071Z,93633.11
2018-03-20T01:09:06.357Z,93625.20
2018-03-20T01:11:34.842Z,93631.21
2018-03-20T01:14:03.114Z,93629.79
2018-03-20T01:16:31.393Z,93626.34
2018-03-20T01:18:59.766Z,93631.76
2018-03-20T01:21:27.942Z,93622.50
2018-03-20T01:23:56.109Z,93619.73
2018-03-20T01:26:24.489Z,93619.97
2018-03-20T01:28:52.569Z,93620.80
2018-03-20T01:31:21.666Z,93623.53
2018-03-20T01:33:50.142Z,93628.99
2018-03-20T01:36:18.891Z,93638.67
2018-03-20T01:38:47.098Z,93638.84
2018-03-20T01:41:15.479Z,93642.98
2018-03-20T01:43:43.746Z,93642.95
2018-03-20T01:46:12.337Z,93643.48
2018-03-20T01:48:40.617Z,93649.44
2018-03-20T01:51:08.989Z,93658.23
2018-03-20T01:53:37.675Z,93657.62
2018-03-20T01:56:06.065Z,93661.88
2018-03-20T01:58:34.430Z,93666.09
2018-03-20T02:01:02.960Z,93664.68
2018-03-20T02:03:31.481Z,93671.08
2018-03-20T02:05:59.873Z,93681.20
2018-03-20T02:08:28.152Z,93680.72
2018-03-20T02:10:56.628Z,93685.39
2018-03-20T02:13:25.250Z,93690.75
2018-03-20T02:15:53.982Z,93686.57
2018-03-20T02:18:22.480Z,93694.31
2018-03-20T02:20:50.961Z,93695.75
2018-03-20T02:23:19.248Z,93685.03
2018-03-20T02:25:47.613Z,93684.29
2018-03-20T02:28:15.978Z,93686.11
2018-03-20T02:30:44.259Z,93691.14
2018-03-20T02:33:12.530Z,93681.45
2018-03-20T02:35:41.138Z,93682.84
2018-03-20T02:38:09.601Z,93681.06
2018-03-20T02:40:37.745Z,93681.00
2018-03-20T02:43:06.269Z,93687.22
2018-03-20T02:45:34.418Z,93689.58
2018-03-20T02:48:02.610Z,93688.16
2018-03-20T02:50:30.782Z,93688.66
2018-03-20T02:52:59.366Z,93685.36
2018-03-20T02:55:27.743Z,93687.22
2018-03-20T02:57:56.942Z,93688.66
2018-03-20T03:00:25.408Z,93700.55
2018-03-20T03:02:53.690Z,93720.56
2018-03-20T03:05:22.278Z,93726.17
2018-03-20T03:07:50.661Z,93727.75
2018-03-20T03:10:19.133Z,93726.33
2018-03-20T03:12:47.389Z,93726.88
2018-03-20T03:15:15.890Z,93726.38
2018-03-20T03:17:44.483Z,93723.64
2018-03-20T03:20:12.405Z,93737.70
2018-03-20T03:22:40.468Z,93734.02
2018-03-20T03:25:08.888Z,93741.77
2018-03-20T03:27:37.065Z,93744.98
2018-03-20T03:30:05.053Z,93750.22
2018-03-20T03:32:33.413Z,93749.09
2018-03-20T03:35:01.893Z,93746.40
2018-03-20T03:37:30.156Z,93741.24
2018-03-20T03:39:58.540Z,93747.14
2018-03-20T03:42:27.022Z,93747.02
2018-03-20T03:44:55.278Z,93753.02
2018-03-20T03:47:23.887Z,93762.41
2018-03-20T03:49:52.278Z,93756.61
2018-03-20T03:52:20.318Z,93758.87
2018-03-20T03:54:48.601Z,93762.23
2018-03-20T03:57:17.085Z,93776.77
2018-03-20T03:59:45.564Z,93776.77
2018-03-20T04:02:13.833Z,93775.73
2018-03-20T04:04:42.428Z,93776.16
2018-03-20T04:07:11.104Z,93784.91
2018-03-20T04:09:39.230Z,93799.37
2018-03-20T04:12:07.768Z,93811.63
2018-03-20T04:14:36.232Z,93815.19
2018-03-20T04:17:04.717Z,93815.11
2018-03-20T04:19:33.113Z,93821.05
2018-03-20T04:22:01.465Z,93837.78
2018-03-20T04:24:29.856Z,93836.38
2018-03-20T04:26:58.327Z,93841.82
2018-03-20T04:29:26.708Z,93846.89
2018-03-20T04:31:55.505Z,93849.49
2018-03-20T04:34:23.985Z,93866.45
2018-03-20T04:36:52.052Z,93865.19
2018-03-20T04:39:20.845Z,93876.88
2018-03-20T04:41:49.059Z,93878.67
2018-03-20T04:44:17.402Z,93879.56
2018-03-20T04:46:45.767Z,93889.88
2018-03-20T04:49:14.205Z,93888.96
2018-03-20T04:51:42.738Z,93901.63
2018-03-20T04:54:10.821Z,93898.64
2018-03-20T04:56:39.290Z,93903.83
2018-03-20T04:59:07.665Z,93903.37
2018-03-20T05:01:35.937Z,93909.63
2018-03-20T05:04:04.538Z,93908.36
2018-03-20T05:06:33.003Z,93906.30
2018-03-20T05:09:01.485Z,93905.09
2018-03-20T05:11:29.981Z,93908.69
2018-03-20T05:13:58.346Z,93912.91
2018-03-20T05:16:26.822Z,93910.53
2018-03-20T05:22:24.892Z,93851.30
2018-03-20T05:24:53.195Z,93940.47
2018-03-20T05:27:21.873Z,93954.00
2018-03-20T05:29:50.465Z,93960.94
2018-03-20T05:32:18.764Z,93966.16
2018-03-20T05:34:47.227Z,93971.45
2018-03-20T05:37:15.797Z,93972.17
2018-03-20T05:39:44.322Z,93974.16
2018-03-20T05:42:12.659Z,93980.14
2018-03-20T05:44:41.022Z,93982.45
2018-03-20T05:47:26.296Z,93975.20
2018-03-20T05:50:14.641Z,93983.03
2018-03-20T05:52:43.137Z,93997.31
2018-03-20T05:55:11.731Z,93994.48
2018-03-20T05:57:40.137Z,94003.70
2018-03-20T06:00:09.596Z,94012.33
2018-03-20T06:02:37.669Z,94013.52
2018-03-20T06:05:06.247Z,94019.02
2018-03-20T06:07:34.517Z,94013.04
2018-03-20T06:10:03.022Z,94020.11
2018-03-20T06:12:31.571Z,94013.16
2018-03-20T06:14:59.801Z,94017.31
2018-03-20T06:17:28.145Z,94031.57
2018-03-20T06:19:56.729Z,94029.83
2018-03-20T06:28:20.028Z,94044.84
2018-03-20T06:30:48.716Z,94045.91
2018-03-20T06:33:17.386Z,94055.81
2018-03-20T06:35:46.241Z,94058.65
2018-03-20T06:38:14.875Z,94056.66
2018-03-20T06:40:43.467Z,94058.38
2018-03-20T06:43:12.228Z,94056.94
2018-03-20T06:45:40.516Z,94051.88
2018-03-20T06:48:09.405Z,94055.98
2018-03-20T06:50:38.286Z,94057.98
2018-03-20T06:53:06.698Z,94058.00
2018-03-20T06:55:35.261Z,94060.73
2018-03-20T06:58:03.506Z,94063.96
2018-03-20T07:00:31.914Z,94071.03
2018-03-20T07:03:00.806Z,94072.86
2018-03-20T07:05:29.194Z,94076.53
2018-03-20T07:07:57.760Z,94072.38
2018-03-20T07:10:26.333Z,94069.05
2018-03-20T07:12:54.726Z,94070.21
2018-03-20T07:15:23.410Z,94074.10
2018-03-20T07:17:51.895Z,94077.27
2018-03-20T07:20:20.347Z,94071.91
2018-03-20T07:22:48.797Z,94076.39
2018-03-20T07:25:17.538Z,94073.39
2018-03-20T07:27:46.221Z,94085.80
2018-03-20T07:30:14.591Z,94087.94
2018-03-20T07:32:43.281Z,94093.75
2018-03-20T07:35:11.205Z,94091.52
2018-03-20T07:37:39.938Z,94086.64
2018-03-20T07:40:08.298Z,94096.47
2018-03-20T07:42:36.372Z,94102.81
2018-03-20T07:45:04.853Z,94100.61
2018-03-20T07:47:32.923Z,94112.31
2018-03-20T07:50:01.524Z,94115.45
2018-03-20T07:52:30.007Z,94125.41
2018-03-20T07:54:58.582Z,94123.38
2018-03-20T07:57:27.166Z,94122.30
2018-03-20T07:59:55.837Z,94113.92
2018-03-20T08:02:24.219Z,94125.76
2018-03-20T08:04:52.921Z,94130.56
2018-03-20T08:07:21.601Z,94133.98
2018-03-20T08:09:49.968Z,94134.95
2018-03-20T08:12:18.764Z,94138.83
2018-03-20T08:14:47.141Z,94149.52
2018-03-20T08:17:15.816Z,94148.30
2018-03-20T08:19:43.741Z,94144.61
2018-03-20T08:22:11.664Z,94144.53
2018-03-20T08:24:39.625Z,94146.57
2018-03-20T08:27:07.534Z,94154.48
2018-03-20T08:29:35.875Z,94143.62
2018-03-20T08:32:03.837Z,94157.70
2018-03-20T08:34:31.833Z,94158.77
2018-03-20T08:36:59.814Z,94150.09
2018-03-20T08:39:27.825Z,94145.38
2018-03-20T08:41:55.787Z,94136.81
2018-03-20T08:44:23.812Z,94148.41
2018-03-20T08:46:51.810Z,94150.30
2018-03-20T08:49:19.778Z,94160.88
2018-03-20T08:51:47.745Z,94154.59
2018-03-20T08:54:15.675Z,94151.81
2018-03-20T08:56:43.643Z,94160.52
2018-03-20T08:59:11.594Z,94178.00
2018-03-20T09:01:39.507Z,94170.13
2018-03-20T09:04:07.588Z,94177.02
2018-03-20T09:06:35.600Z,94185.13
2018-03-20T09:09:03.619Z,94169.64
2018-03-20T09:11:31.523Z,94176.34
2018-03-20T09:13:59.481Z,94188.78
2018-03-20T09:16:27.565Z,94196.00
2018-03-20T09:18:55.943Z,94196.36
2018-03-20T09:21:24.254Z,94196.33
2018-03-20T09:23:52.813Z,94197.33
2018-03-20T09:26:21.615Z,94211.66
2018-03-20T09:28:50.290Z,94221.13
2018-03-20T09:31:18.666Z,94220.70
2018-03-20T09:33:47.246Z,94213.52
2018-03-20T09:36:15.470Z,94217.56
2018-03-20T09:38:44.000Z,94219.91
2018-03-20T09:41:12.490Z,94218.13
2018-03-20T09:43:41.054Z,94213.20
2018-03-20T09:46:09.440Z,94211.98
2018-03-20T09:48:37.930Z,94218.41
2018-03-20T09:51:06.301Z,94205.25
2018-03-20T09:53:34.687Z,94208.27
2018-03-20T09:56:03.035Z,94246.28
2018-03-20T09:58:31.440Z,94241.89
2018-03-20T10:01:00.017Z,94232.49
2018-03-20T10:03:28.394Z,94233.69
2018-03-20T10:05:56.977Z,94230.99
2018-03-20T10:08:25.345Z,94230.58
2018-03-20T10:10:54.032Z,94243.88
2018-03-20T10:13:22.629Z,94246.34
2018-03-20T10:15:51.219Z,94240.94
2018-03-20T10:18:19.602Z,94241.86
2018-03-20T10:20:48.066Z,94245.79
2018-03-20T10:23:15.956Z,94239.78
2018-03-20T10:25:43.860Z,94244.94
2018-03-20T10:28:11.818Z,94240.46
2018-03-20T10:30:39.758Z,94255.16
2018-03-20T10:33:08.017Z,94262.81
2018-03-20T10:35:36.434Z,94250.28
2018-03-20T10:38:04.410Z,94271.06
2018-03-20T10:40:32.619Z,94254.66
2018-03-20T10:43:01.325Z,94255.18
2018-03-20T10:45:29.261Z,94261.70
2018-03-20T10:47:57.206Z,94273.62
2018-03-20T10:50:25.632Z,94249.76
2018-03-20T10:52:54.022Z,94252.70
2018-03-20T10:55:22.494Z,94261.13
2018-03-20T10:57:51.074Z,94273.62
2018-03-20T11:00:24.913Z,94277.27
2018-03-20T11:02:53.676Z,94287.02
2018-03-20T11:05:21.624Z,94287.50
2018-03-20T11:07:49.601Z,94294.11
2018-03-20T11:10:17.533Z,94280.45
2018-03-20T11:12:45.510Z,94287.22
2018-03-20T11:15:13.455Z,94283.19
2018-03-20T11:17:41.334Z,94287.95
2018-03-20T11:20:09.278Z,94299.47
2018-03-20T11:22:37.249Z,94312.21
2018-03-20T11:25:05.235Z,94322.91
2018-03-20T11:27:33.243Z,94320.39
2018-03-20T11:30:01.541Z,94323.13
2018-03-20T11:32:30.006Z,94331.01
2018-03-20T11:34:58.501Z,94333.50
2018-03-20T11:37:26.443Z,94333.77
2018-03-20T11:39:54.378Z,94327.88
2018-03-20T11:42:22.339Z,94343.41
2018-03-20T11:44:50.296Z,94332.27
2018-03-20T11:47:18.246Z,94351.13
2018-03-20T11:49:46.140Z,94343.86
2018-03-20T11:52:14.097Z,94339.16
2018-03-20T11:54:42.043Z,94345.48
2018-03-20T11:57:10.007Z,94351.13
2018-03-20T11:59:37.837Z,94339.01
2018-03-20T12:02:05.766Z,94346.69
2018-03-20T12:04:33.778Z,94351.31
2018-03-20T12:07:02.486Z,94351.02
2018-03-20T12:09:51.953Z,94353.48
2018-03-20T12:12:20.328Z,94363.42
2018-03-20T12:14:48.813Z,94370.86
2018-03-20T12:17:17.480Z,94378.88
2018-03-20T12:19:45.918Z,94389.15
2018-03-20T12:22:14.562Z,94381.27
2018-03-20T12:24:43.031Z,94383.52
2018-03-20T12:27:11.631Z,94386.59
2018-03-20T12:29:40.005Z,94391.32
2018-03-20T12:32:08.586Z,94391.71
2018-03-20T12:34:36.797Z,94396.53
2018-03-20T12:37:05.649Z,94385.63
2018-03-20T12:39:34.329Z,94393.98
2018-03-20T12:42:02.591Z,94385.91
2018-03-20T12:44:31.201Z,94382.30
2018-03-20T12:47:00.181Z,94385.33
2018-03-20T12:49:28.562Z,94376.52
2018-03-20T12:51:57.041Z,94382.98
2018-03-20T12:54:25.621Z,94391.58
2018-03-20T12:56:54.213Z,94402.70
2018-03-20T12:59:22.807Z,94407.43
2018-03-20T13:01:50.847Z,94408.89
2018-03-20T13:04:19.157Z,94406.55
2018-03-20T13:06:47.095Z,94417.06
2018-03-20T13:09:15.095Z,94425.34
2018-03-20T13:11:43.093Z,94411.86
2018-03-20T13:14:11.529Z,94409.63
2018-03-20T13:16:40.040Z,94410.39
2018-03-20T13:19:08.473Z,94419.95
2018-03-20T13:21:37.260Z,94433.62
2018-03-20T13:24:05.500Z,94409.43
2018-03-20T13:26:34.230Z,94404.64
2018-03-20T13:29:02.726Z,94400.23
2018-03-20T13:31:30.982Z,94399.91
2018-03-20T13:33:59.466Z,94395.60
2018-03-20T13:36:28.040Z,94400.18
2018-03-20T13:38:56.832Z,94406.73
2018-03-20T13:41:25.312Z,94398.84
2018-03-20T13:43:53.529Z,94407.28
2018-03-20T13:46:21.972Z,94393.80
2018-03-20T13:48:50.559Z,94412.94
2018-03-20T13:51:19.122Z,94410.72
2018-03-20T13:53:47.518Z,94417.48
2018-03-20T13:56:15.993Z,94422.23
2018-03-20T13:58:44.523Z,94431.16
2018-03-20T14:01:12.955Z,94434.91
2018-03-20T14:03:41.847Z,94435.56
2018-03-20T14:06:10.438Z,94443.11
2018-03-20T14:08:38.917Z,94442.88
2018-03-20T14:11:07.286Z,94445.17
2018-03-20T14:13:35.755Z,94451.36
2018-03-20T14:16:04.251Z,94451.50
2018-03-20T14:18:32.729Z,94456.69
2018-03-20T14:21:01.058Z,94456.26
2018-03-20T14:23:29.686Z,94455.72
2018-03-20T14:25:58.065Z,94463.08
2018-03-20T14:28:26.349Z,94468.27
2018-03-20T14:30:54.622Z,94458.67
2018-03-20T14:33:23.390Z,94454.06
2018-03-20T14:35:51.894Z,94456.16
2018-03-20T14:38:20.158Z,94444.35
2018-03-20T14:40:48.728Z,94455.54
2018-03-20T14:43:17.223Z,94452.92
2018-03-20T14:45:45.807Z,94455.36
2018-03-20T14:48:14.196Z,94456.98
2018-03-20T14:50:42.674Z,94454.25
2018-03-20T14:53:11.188Z,94457.73
2018-03-20T14:55:39.730Z,94453.84
2018-03-20T14:58:08.205Z,94458.73
2018-03-20T15:00:36.789Z,94459.65
2018-03-20T15:03:05.284Z,94455.54
2018-03-20T15:05:33.848Z,94459.13
2018-03-20T15:08:02.229Z,94459.19
2018-03-20T15:10:30.714Z,94464.85
2018-03-20T15:12:59.299Z,94465.37
2018-03-20T15:15:27.877Z,94473.25
2018-03-20T15:17:56.456Z,94472.39
2018-03-20T15:20:24.790Z,94472.23
2018-03-20T15:22:53.322Z,94481.29
2018-03-20T15:25:21.911Z,94482.59
2018-03-20T15:27:50.290Z,94489.61
2018-03-20T15:30:18.862Z,94485.12
2018-03-20T15:32:47.652Z,94487.78
2018-03-20T15:35:16.240Z,94486.88
2018-03-20T15:37:44.638Z,94488.88
2018-03-20T15:40:13.496Z,94498.98
2018-03-20T15:42:42.181Z,94503.44
2018-03-20T15:45:10.576Z,94502.00
2018-03-20T15:47:38.947Z,94505.78
2018-03-20T15:50:07.723Z,94508.68
2018-03-20T15:52:36.043Z,94507.11
2018-03-20T15:55:04.367Z,94509.62
2018-03-20T15:57:33.257Z,94513.15
2018-03-20T16:00:01.515Z,94513.75
2018-03-20T16:02:30.327Z,94520.03
2018-03-20T16:04:58.802Z,94524.02
2018-03-20T16:07:27.298Z,94529.09
2018-03-20T16:09:56.097Z,94532.75
2018-03-20T16:12:24.456Z,94530.02
2018-03-20T16:14:52.891Z,94539.80
2018-03-20T16:17:21.520Z,94539.83
2018-03-20T16:19:49.736Z,94541.45
2018-03-20T16:22:18.590Z,94544.14
2018-03-20T16:24:46.772Z,94543.95
2018-03-20T16:27:15.346Z,94550.33
2018-03-20T16:29:43.715Z,94553.29
2018-03-20T16:32:12.337Z,94566.86
2018-03-20T16:34:40.990Z,94572.55
2018-03-20T16:37:09.764Z,94577.84
2018-03-20T16:39:38.297Z,94589.42
2018-03-20T16:42:06.838Z,94592.41
2018-03-20T16:44:35.839Z,94592.38
2018-03-20T16:47:04.186Z,94594.38
2018-03-20T16:49:32.789Z,94594.73
2018-03-20T16:52:01.582Z,94600.20
2018-03-20T16:54:30.060Z,94609.38
2018-03-20T16:56:58.235Z,94606.67
2018-03-20T16:59:26.720Z,94604.24
2018-03-20T17:01:55.300Z,94611.44
2018-03-20T17:04:23.882Z,94606.75
2018-03-20T17:06:52.257Z,94608.77
2018-03-20T17:09:20.657Z,94613.23
2018-03-20T17:11:49.121Z,94617.30
2018-03-20T17:14:17.476Z,94636.09
2018-03-20T17:16:45.769Z,94640.67
2018-03-20T17:19:14.048Z,94642.90
2018-03-20T17:21:42.732Z,94637.36
2018-03-20T17:24:11.214Z,94648.48
2018-03-20T17:26:39.650Z,94646.55
2018-03-20T17:29:08.093Z,94644.28
2018-03-20T17:31:36.970Z,94645.76
2018-03-20T17:34:05.194Z,94650.16
2018-03-20T17:36:33.613Z,94650.70
2018-03-20T17:39:02.712Z,94651.90
2018-03-20T17:41:31.397Z,94659.98
2018-03-20T17:43:59.991Z,94663.30
2018-03-20T17:46:28.616Z,94664.66
2018-03-20T17:48:57.350Z,94666.96
2018-03-20T17:51:25.930Z,94669.57
2018-03-20T17:53:54.762Z,94667.46
2018-03-20T17:56:23.198Z,94678.84
2018-03-20T17:58:51.787Z,94680.64
2018-03-20T18:01:20.348Z,94661.84
2018-03-20T18:03:48.847Z,94694.16
2018-03-20T18:06:17.426Z,94695.01
2018-03-20T18:08:46.008Z,94701.09
2018-03-20T18:11:14.494Z,94708.12
2018-03-20T18:13:42.944Z,94713.61
2018-03-20T18:16:11.448Z,94720.10
2018-03-20T18:18:39.932Z,94714.54
2018-03-20T18:21:08.474Z,94718.08
2018-03-20T18:23:36.894Z,94723.40
2018-03-20T18:26:05.876Z,94732.52
2018-03-20T18:28:34.274Z,94738.97
2018-03-20T18:31:02.956Z,94737.64
2018-03-20T18:33:31.635Z,94751.17
2018-03-20T18:35:59.654Z,94739.98
2018-03-20T18:38:28.593Z,94753.22
2018-03-20T18:40:57.278Z,94751.00
2018-03-20T18:43:25.757Z,94753.61
2018-03-20T18:45:54.228Z,94760.52
2018-03-20T18:48:22.822Z,94769.55
2018-03-20T18:50:51.515Z,94768.39
2018-03-20T18:53:19.687Z,94778.79
2018-03-20T18:55:47.953Z,94787.22
2018-03-20T18:58:16.350Z,94788.09
2018-03-20T19:00:44.923Z,94790.80
2018-03-20T19:03:13.401Z,94786.92
2018-03-20T19:05:41.809Z,94783.94
2018-03-20T19:08:10.365Z,94792.81
2018-03-20T19:10:38.899Z,94796.89
2018-03-20T19:13:07.209Z,94796.09
2018-03-20T19:15:35.706Z,94798.30
2018-03-20T19:18:04.369Z,94799.83
2018-03-20T19:20:32.920Z,94807.25
2018-03-20T19:23:01.463Z,94822.73
2018-03-20T19:25:30.024Z,94827.08
2018-03-20T19:27:58.515Z,94828.42
2018-03-20T19:30:26.985Z,94832.44
2018-03-20T19:32:55.248Z,94837.42
2018-03-20T19:35:23.846Z,94833.89
2018-03-20T19:37:52.629Z,94838.53
2018-03-20T19:40:21.212Z,94841.98
2018-03-20T19:42:49.629Z,94838.48
2018-03-20T19:45:18.074Z,94839.61
2018-03-20T19:47:46.652Z,94840.53
2018-03-20T19:50:15.554Z,94830.69
2018-03-20T19:52:43.925Z,94832.31
2018-03-20T19:55:12.306Z,94833.16
2018-03-20T19:57:40.868Z,94834.05
2018-03-20T20:00:09.144Z,94829.77
2018-03-20T20:02:37.647Z,94828.95
2018-03-20T20:05:06.141Z,94830.00
2018-03-20T20:07:34.711Z,94833.71
2018-03-20T20:10:03.392Z,94832.02
2018-03-20T20:12:31.770Z,94836.23
2018-03-20T20:15:00.354Z,94848.11
2018-03-20T20:17:28.940Z,94844.00
2018-03-20T20:19:57.419Z,94841.23
2018-03-20T20:22:25.890Z,94839.19
2018-03-20T20:24:54.375Z,94838.66
2018-03-20T20:27:22.654Z,94840.78
2018-03-20T20:29:51.033Z,94845.54
2018-03-20T20:32:19.617Z,94854.78
2018-03-20T20:34:48.098Z,94856.87
2018-03-20T20:37:16.490Z,94857.03
2018-03-20T20:39:45.079Z,94858.14
2018-03-20T20:42:13.535Z,94829.52
2018-03-20T20:44:41.904Z,94859.41
2018-03-20T20:47:10.494Z,94854.84
2018-03-20T20:49:38.972Z,94858.70
2018-03-20T20:52:07.752Z,94858.83
2018-03-20T20:54:36.241Z,94861.94
2018-03-20T20:57:04.820Z,94855.47
2018-03-20T20:59:33.300Z,94850.13
2018-03-20T21:02:01.891Z,94857.48
2018-03-20T21:04:29.864Z,94863.25
2018-03-20T21:06:57.877Z,94863.58
2018-03-20T21:09:26.185Z,94871.34
2018-03-20T21:11:54.581Z,94872.80
2018-03-20T21:14:23.162Z,94875.31
2018-03-20T21:16:51.750Z,94873.66
2018-03-20T21:19:20.132Z,94875.81
2018-03-20T21:21:48.604Z,94883.20
2018-03-20T21:24:17.290Z,94885.31
2018-03-20T21:26:45.565Z,94882.77
2018-03-20T21:29:14.149Z,94876.36
2018-03-20T21:31:43.091Z,94873.03
2018-03-20T21:34:11.604Z,94873.24
2018-03-20T21:36:39.899Z,94874.70
2018-03-20T21:39:08.477Z,94884.67
2018-03-20T21:41:36.852Z,94888.19
2018-03-20T21:44:05.343Z,94878.61
2018-03-20T21:46:33.904Z,94885.15
2018-03-20T21:49:02.402Z,94890.05
2018-03-20T21:51:30.682Z,94896.44
2018-03-20T21:53:59.098Z,94908.77
2018-03-20T21:56:27.732Z,94914.14
2018-03-20T21:58:55.961Z,94913.97
2018-03-20T22:01:24.504Z,94912.17
2018-03-20T22:03:53.381Z,94911.45
2018-03-20T22:06:22.182Z,94900.44
2018-03-20T22:08:50.964Z,94898.64
2018-03-20T22:11:19.437Z,94898.45
2018-03-20T22:13:47.708Z,94896.25
2018-03-20T22:16:16.093Z,94901.56
2018-03-20T22:18:44.370Z,94903.88
2018-03-20T22:21:13.056Z,94905.84
2018-03-20T22:23:41.538Z,94895.70
2018-03-20T22:26:09.748Z,94894.04
2018-03-20T22:28:38.313Z,94892.31
2018-03-20T22:31:06.862Z,94896.30
2018-03-20T22:33:35.516Z,94908.70
2018-03-20T22:36:03.942Z,94918.38
2018-03-20T22:38:32.925Z,94904.42
2018-03-20T22:41:01.323Z,94898.14
2018-03-20T22:43:29.588Z,94903.13
2018-03-20T22:45:57.961Z,94904.16
2018-03-20T22:48:26.243Z,94907.18
2018-03-20T22:50:54.826Z,94902.53
2018-03-20T22:53:22.996Z,94904.58
2018-03-20T22:55:51.834Z,94910.69
2018-03-20T22:58:20.266Z,94910.38
2018-03-20T23:00:48.630Z,94912.22
2018-03-20T23:03:17.410Z,94918.66
2018-03-20T23:05:45.863Z,94915.44
2018-03-20T23:51:54.302Z,94946.35
2018-03-20T23:54:22.781Z,94938.48
2018-03-20T23:56:51.097Z,94940.95
2018-03-20T23:59:19.542Z,94937.75
